sensor_id;sensor_type;location;lat;lon;timestamp;P1;durP1;ratioP1;P2;durP2;ratioP2
35380;SDS011;21486;51.916;8.378;2023-01-28T01:33:01;8.23;;;6.20;;
35380;SDS011;21486;51.916;8.378;2023-01-28T01:35:27;8.83;;;5.47;;
35380;SDS011;21486;51.916;8.378;2023-01-28T01:37:52;7.43;;;5.33;;
35380;SDS011;21486;51.916;8.378;2023-01-28T01:40:18;5.43;;;4.90;;
35380;SDS011;21486;51.916;8.378;2023-01-28T01:42:43;6.47;;;5.03;;
35380;SDS011;21486;51.916;8.378;2023-01-28T01:45:12;6.73;;;5.27;;
35380;SDS011;21486;51.916;8.378;2023-01-28T01:47:46;10.07;;;6.32;;
35380;SDS011;21486;51.916;8.378;2023-01-28T01:50:27;10.65;;;6.82;;
35380;SDS011;21486;51.916;8.378;2023-01-28T01:53:02;9.40;;;6.93;;
35380;SDS011;21486;51.916;8.378;2023-01-28T01:55:42;10.48;;;6.60;;
35380;SDS011;21486;51.916;8.378;2023-01-28T01:58:14;8.27;;;6.13;;
35380;SDS011;21486;51.916;8.378;2023-01-28T02:00:42;11.35;;;6.93;;
35380;SDS011;21486;51.916;8.378;2023-01-28T02:03:09;11.48;;;6.32;;
35380;SDS011;21486;51.916;8.378;2023-01-28T02:05:35;6.90;;;5.40;;
35380;SDS011;21486;51.916;8.378;2023-01-28T02:08:02;6.40;;;4.93;;
35380;SDS011;21486;51.916;8.378;2023-01-28T02:10:47;6.88;;;5.15;;
35380;SDS011;21486;51.916;8.378;2023-01-28T02:13:16;9.00;;;5.82;;
35380;SDS011;21486;51.916;8.378;2023-01-28T02:15:45;7.13;;;5.75;;
35380;SDS011;21486;51.916;8.378;2023-01-28T02:18:12;10.57;;;6.38;;
35380;SDS011;21486;51.916;8.378;2023-01-28T02:20:46;7.87;;;5.97;;
35380;SDS011;21486;51.916;8.378;2023-01-28T02:23:21;12.60;;;8.30;;
35380;SDS011;21486;51.916;8.378;2023-01-28T02:26:07;14.25;;;6.72;;
35380;SDS011;21486;51.916;8.378;2023-01-28T02:28:44;12.13;;;7.55;;
35380;SDS011;21486;51.916;8.378;2023-01-28T02:31:18;9.30;;;6.37;;
35380;SDS011;21486;51.916;8.378;2023-01-28T02:33:55;8.73;;;5.88;;
35380;SDS011;21486;51.916;8.378;2023-01-28T02:36:35;10.63;;;5.95;;
35380;SDS011;21486;51.916;8.378;2023-01-28T02:39:19;9.45;;;5.32;;
35380;SDS011;21486;51.916;8.378;2023-01-28T02:41:49;7.13;;;5.82;;
35380;SDS011;21486;51.916;8.378;2023-01-28T02:44:20;8.13;;;6.22;;
35380;SDS011;21486;51.916;8.378;2023-01-28T02:46:45;7.77;;;6.20;;
35380;SDS011;21486;51.916;8.378;2023-01-28T02:49:32;9.77;;;6.68;;
35380;SDS011;21486;51.916;8.378;2023-01-28T02:58:15;7.35;;;5.85;;
35380;SDS011;21486;51.916;8.378;2023-01-28T03:00:55;8.57;;;6.22;;
35380;SDS011;21486;51.916;8.378;2023-01-28T03:06:27;7.70;;;6.45;;
35380;SDS011;21486;51.916;8.378;2023-01-28T03:09:00;10.57;;;6.67;;
35380;SDS011;21486;51.916;8.378;2023-01-28T03:15:03;7.55;;;6.05;;
35380;SDS011;21486;51.916;8.378;2023-01-28T03:26:44;7.20;;;5.30;;
35380;SDS011;21486;51.916;8.378;2023-01-28T03:29:36;6.40;;;5.63;;
35380;SDS011;21486;51.916;8.378;2023-01-28T03:32:23;8.30;;;5.70;;
35380;SDS011;21486;51.916;8.378;2023-01-28T03:35:07;5.88;;;5.35;;
35380;SDS011;21486;51.916;8.378;2023-01-28T03:37:54;7.25;;;5.65;;
35380;SDS011;21486;51.916;8.378;2023-01-28T03:40:19;7.95;;;5.93;;
35380;SDS011;21486;51.916;8.378;2023-01-28T03:42:45;7.27;;;6.00;;
35380;SDS011;21486;51.916;8.378;2023-01-28T03:45:11;8.50;;;6.23;;
35380;SDS011;21486;51.916;8.378;2023-01-28T03:47:38;10.63;;;6.63;;
35380;SDS011;21486;51.916;8.378;2023-01-28T03:50:04;9.32;;;5.90;;
35380;SDS011;21486;51.916;8.378;2023-01-28T03:52:31;13.70;;;8.52;;
35380;SDS011;21486;51.916;8.378;2023-01-28T03:54:57;16.33;;;9.57;;
35380;SDS011;21486;51.916;8.378;2023-01-28T03:57:24;14.45;;;9.63;;
35380;SDS011;21486;51.916;8.378;2023-01-28T03:59:51;9.07;;;7.38;;
35380;SDS011;21486;51.916;8.378;2023-01-28T04:02:21;10.55;;;8.52;;
35380;SDS011;21486;51.916;8.378;2023-01-28T04:04:47;8.35;;;6.82;;
35380;SDS011;21486;51.916;8.378;2023-01-28T04:07:14;7.88;;;6.57;;
35380;SDS011;21486;51.916;8.378;2023-01-28T04:09:40;8.98;;;6.90;;
35380;SDS011;21486;51.916;8.378;2023-01-28T04:12:07;8.98;;;6.78;;
35380;SDS011;21486;51.916;8.378;2023-01-28T04:14:33;10.93;;;5.93;;
35380;SDS011;21486;51.916;8.378;2023-01-28T04:16:59;9.55;;;5.95;;
35380;SDS011;21486;51.916;8.378;2023-01-28T04:19:25;8.70;;;6.22;;
35380;SDS011;21486;51.916;8.378;2023-01-28T04:21:52;8.65;;;5.30;;
35380;SDS011;21486;51.916;8.378;2023-01-28T04:24:18;9.10;;;4.63;;
35380;SDS011;21486;51.916;8.378;2023-01-28T04:26:44;5.57;;;4.20;;
35380;SDS011;21486;51.916;8.378;2023-01-28T04:29:09;7.53;;;4.37;;
35380;SDS011;21486;51.916;8.378;2023-01-28T04:31:35;6.00;;;3.80;;
35380;SDS011;21486;51.916;8.378;2023-01-28T04:34:00;4.30;;;3.40;;
35380;SDS011;21486;51.916;8.378;2023-01-28T04:36:26;5.73;;;3.63;;
35380;SDS011;21486;51.916;8.378;2023-01-28T04:38:51;7.10;;;4.00;;
35380;SDS011;21486;51.916;8.378;2023-01-28T04:41:17;4.97;;;3.67;;
35380;SDS011;21486;51.916;8.378;2023-01-28T04:43:43;6.97;;;4.30;;
35380;SDS011;21486;51.916;8.378;2023-01-28T04:46:08;5.77;;;4.57;;
35380;SDS011;21486;51.916;8.378;2023-01-28T04:48:34;10.18;;;5.53;;
35380;SDS011;21486;51.916;8.378;2023-01-28T04:51:00;6.07;;;5.47;;
35380;SDS011;21486;51.916;8.378;2023-01-28T04:53:27;5.85;;;4.78;;
35380;SDS011;21486;51.916;8.378;2023-01-28T04:55:53;5.45;;;4.78;;
35380;SDS011;21486;51.916;8.378;2023-01-28T04:58:18;8.05;;;5.90;;
35380;SDS011;21486;51.916;8.378;2023-01-28T05:00:44;5.55;;;4.93;;
35380;SDS011;21486;51.916;8.378;2023-01-28T05:03:09;6.18;;;5.43;;
35380;SDS011;21486;51.916;8.378;2023-01-28T05:05:35;7.82;;;5.55;;
35380;SDS011;21486;51.916;8.378;2023-01-28T05:08:00;8.60;;;5.63;;
35380;SDS011;21486;51.916;8.378;2023-01-28T05:10:26;8.10;;;5.97;;
35380;SDS011;21486;51.916;8.378;2023-01-28T05:12:52;9.23;;;6.57;;
35380;SDS011;21486;51.916;8.378;2023-01-28T05:15:18;7.93;;;5.68;;
35380;SDS011;21486;51.916;8.378;2023-01-28T05:17:44;6.13;;;4.72;;
35380;SDS011;21486;51.916;8.378;2023-01-28T05:20:10;8.02;;;4.70;;
35380;SDS011;21486;51.916;8.378;2023-01-28T05:22:37;7.50;;;6.07;;
35380;SDS011;21486;51.916;8.378;2023-01-28T05:25:03;8.35;;;6.30;;
35380;SDS011;21486;51.916;8.378;2023-01-28T05:27:29;9.07;;;6.80;;
35380;SDS011;21486;51.916;8.378;2023-01-28T05:29:56;10.73;;;7.28;;
35380;SDS011;21486;51.916;8.378;2023-01-28T05:32:22;10.23;;;6.82;;
35380;SDS011;21486;51.916;8.378;2023-01-28T05:34:48;7.43;;;5.50;;
35380;SDS011;21486;51.916;8.378;2023-01-28T05:37:13;6.13;;;5.53;;
35380;SDS011;21486;51.916;8.378;2023-01-28T05:39:39;6.07;;;4.80;;
35380;SDS011;21486;51.916;8.378;2023-01-28T05:42:04;8.80;;;5.80;;
35380;SDS011;21486;51.916;8.378;2023-01-28T05:44:30;8.83;;;5.20;;
35380;SDS011;21486;51.916;8.378;2023-01-28T05:46:55;5.75;;;5.18;;
35380;SDS011;21486;51.916;8.378;2023-01-28T05:49:21;5.32;;;4.70;;
35380;SDS011;21486;51.916;8.378;2023-01-28T05:51:47;8.20;;;5.30;;
35380;SDS011;21486;51.916;8.378;2023-01-28T05:54:12;6.15;;;4.85;;
35380;SDS011;21486;51.916;8.378;2023-01-28T05:56:38;7.22;;;5.30;;
35380;SDS011;21486;51.916;8.378;2023-01-28T05:59:05;6.20;;;5.35;;
35380;SDS011;21486;51.916;8.378;2023-01-28T06:01:30;8.05;;;5.82;;
35380;SDS011;21486;51.916;8.378;2023-01-28T06:03:56;8.05;;;5.80;;
35380;SDS011;21486;51.916;8.378;2023-01-28T06:06:23;6.47;;;5.50;;
35380;SDS011;21486;51.916;8.378;2023-01-28T06:08:48;9.67;;;6.57;;
35380;SDS011;21486;51.916;8.378;2023-01-28T06:11:14;9.07;;;6.90;;
35380;SDS011;21486;51.916;8.378;2023-01-28T06:13:39;10.03;;;7.20;;
35380;SDS011;21486;51.916;8.378;2023-01-28T06:16:05;10.13;;;7.28;;
35380;SDS011;21486;51.916;8.378;2023-01-28T06:18:32;8.60;;;7.10;;
35380;SDS011;21486;51.916;8.378;2023-01-28T06:20:57;8.20;;;6.73;;
35380;SDS011;21486;51.916;8.378;2023-01-28T06:23:23;8.43;;;6.77;;
35380;SDS011;21486;51.916;8.378;2023-01-28T06:25:52;10.53;;;7.20;;
35380;SDS011;21486;51.916;8.378;2023-01-28T06:28:18;10.68;;;6.72;;
35380;SDS011;21486;51.916;8.378;2023-01-28T06:30:46;11.73;;;7.10;;
35380;SDS011;21486;51.916;8.378;2023-01-28T06:33:13;8.18;;;6.63;;
35380;SDS011;21486;51.916;8.378;2023-01-28T06:35:38;9.10;;;6.70;;
35380;SDS011;21486;51.916;8.378;2023-01-28T06:38:04;8.67;;;6.20;;
35380;SDS011;21486;51.916;8.378;2023-01-28T06:40:29;9.17;;;5.83;;
35380;SDS011;21486;51.916;8.378;2023-01-28T06:42:55;9.10;;;6.80;;
35380;SDS011;21486;51.916;8.378;2023-01-28T06:45:20;6.90;;;6.10;;
35380;SDS011;21486;51.916;8.378;2023-01-28T06:47:46;7.20;;;6.50;;
35380;SDS011;21486;51.916;8.378;2023-01-28T06:50:11;8.05;;;5.90;;
35380;SDS011;21486;51.916;8.378;2023-01-28T06:52:37;8.07;;;6.40;;
35380;SDS011;21486;51.916;8.378;2023-01-28T06:55:03;8.85;;;6.00;;
35380;SDS011;21486;51.916;8.378;2023-01-28T06:57:29;9.83;;;5.80;;
35380;SDS011;21486;51.916;8.378;2023-01-28T06:59:55;8.57;;;6.60;;
35380;SDS011;21486;51.916;8.378;2023-01-28T07:02:20;9.80;;;7.13;;
35380;SDS011;21486;51.916;8.378;2023-01-28T07:04:46;9.57;;;7.00;;
35380;SDS011;21486;51.916;8.378;2023-01-28T07:07:11;7.50;;;6.33;;
35380;SDS011;21486;51.916;8.378;2023-01-28T07:09:37;8.55;;;6.25;;
35380;SDS011;21486;51.916;8.378;2023-01-28T07:12:02;8.63;;;6.65;;
35380;SDS011;21486;51.916;8.378;2023-01-28T07:14:29;9.50;;;6.60;;
35380;SDS011;21486;51.916;8.378;2023-01-28T07:16:55;7.93;;;6.70;;
35380;SDS011;21486;51.916;8.378;2023-01-28T07:19:21;7.53;;;6.47;;
35380;SDS011;21486;51.916;8.378;2023-01-28T07:21:46;10.47;;;7.10;;
35380;SDS011;21486;51.916;8.378;2023-01-28T07:24:12;11.70;;;7.33;;
35380;SDS011;21486;51.916;8.378;2023-01-28T07:26:37;8.37;;;6.57;;
35380;SDS011;21486;51.916;8.378;2023-01-28T07:29:03;10.32;;;6.70;;
35380;SDS011;21486;51.916;8.378;2023-01-28T07:31:28;8.88;;;6.82;;
35380;SDS011;21486;51.916;8.378;2023-01-28T07:33:54;7.57;;;6.63;;
35380;SDS011;21486;51.916;8.378;2023-01-28T07:36:19;13.23;;;7.00;;
35380;SDS011;21486;51.916;8.378;2023-01-28T07:38:45;9.03;;;6.63;;
35380;SDS011;21486;51.916;8.378;2023-01-28T07:41:10;8.97;;;7.27;;
35380;SDS011;21486;51.916;8.378;2023-01-28T07:43:36;11.00;;;7.30;;
35380;SDS011;21486;51.916;8.378;2023-01-28T07:46:01;9.70;;;7.40;;
35380;SDS011;21486;51.916;8.378;2023-01-28T07:48:27;12.38;;;7.97;;
35380;SDS011;21486;51.916;8.378;2023-01-28T07:50:53;10.05;;;7.57;;
35380;SDS011;21486;51.916;8.378;2023-01-28T07:53:23;10.67;;;7.73;;
35380;SDS011;21486;51.916;8.378;2023-01-28T07:55:48;9.80;;;7.10;;
35380;SDS011;21486;51.916;8.378;2023-01-28T07:58:14;9.27;;;6.93;;
35380;SDS011;21486;51.916;8.378;2023-01-28T08:00:39;10.27;;;7.60;;
35380;SDS011;21486;51.916;8.378;2023-01-28T08:03:06;11.57;;;7.27;;
35380;SDS011;21486;51.916;8.378;2023-01-28T08:05:39;10.13;;;8.20;;
35380;SDS011;21486;51.916;8.378;2023-01-28T08:08:09;9.93;;;7.38;;
35380;SDS011;21486;51.916;8.378;2023-01-28T08:10:36;8.45;;;7.55;;
35380;SDS011;21486;51.916;8.378;2023-01-28T08:13:02;8.02;;;7.20;;
35380;SDS011;21486;51.916;8.378;2023-01-28T08:15:28;10.32;;;7.40;;
35380;SDS011;21486;51.916;8.378;2023-01-28T08:17:55;8.80;;;7.10;;
35380;SDS011;21486;51.916;8.378;2023-01-28T08:20:22;8.82;;;7.45;;
35380;SDS011;21486;51.916;8.378;2023-01-28T08:22:48;29.25;;;8.00;;
35380;SDS011;21486;51.916;8.378;2023-01-28T08:25:14;7.80;;;7.00;;
35380;SDS011;21486;51.916;8.378;2023-01-28T08:27:39;10.95;;;7.68;;
35380;SDS011;21486;51.916;8.378;2023-01-28T08:30:05;14.27;;;9.73;;
35380;SDS011;21486;51.916;8.378;2023-01-28T08:32:33;10.87;;;8.00;;
35380;SDS011;21486;51.916;8.378;2023-01-28T08:34:58;11.47;;;8.40;;
35380;SDS011;21486;51.916;8.378;2023-01-28T08:37:24;12.75;;;8.25;;
35380;SDS011;21486;51.916;8.378;2023-01-28T08:39:50;11.50;;;8.10;;
35380;SDS011;21486;51.916;8.378;2023-01-28T08:42:15;11.63;;;7.90;;
35380;SDS011;21486;51.916;8.378;2023-01-28T08:44:41;10.37;;;7.93;;
35380;SDS011;21486;51.916;8.378;2023-01-28T08:47:06;11.00;;;7.90;;
35380;SDS011;21486;51.916;8.378;2023-01-28T08:49:32;11.40;;;7.77;;
35380;SDS011;21486;51.916;8.378;2023-01-28T08:51:57;11.50;;;6.97;;
35380;SDS011;21486;51.916;8.378;2023-01-28T08:54:23;8.00;;;6.07;;
35380;SDS011;21486;51.916;8.378;2023-01-28T08:56:48;10.40;;;7.00;;
35380;SDS011;21486;51.916;8.378;2023-01-28T08:59:15;13.30;;;8.68;;
35380;SDS011;21486;51.916;8.378;2023-01-28T09:01:41;12.18;;;8.52;;
35380;SDS011;21486;51.916;8.378;2023-01-28T09:04:07;8.93;;;6.83;;
35380;SDS011;21486;51.916;8.378;2023-01-28T09:06:32;9.53;;;6.40;;
35380;SDS011;21486;51.916;8.378;2023-01-28T09:08:58;86.80;;;31.40;;
35380;SDS011;21486;51.916;8.378;2023-01-28T09:11:25;46.10;;;18.67;;
35380;SDS011;21486;51.916;8.378;2023-01-28T09:13:51;12.43;;;7.55;;
35380;SDS011;21486;51.916;8.378;2023-01-28T09:16:16;12.35;;;8.70;;
35380;SDS011;21486;51.916;8.378;2023-01-28T09:18:42;12.75;;;8.98;;
35380;SDS011;21486;51.916;8.378;2023-01-28T09:21:07;10.18;;;8.63;;
35380;SDS011;21486;51.916;8.378;2023-01-28T09:23:37;11.40;;;8.98;;
35380;SDS011;21486;51.916;8.378;2023-01-28T09:26:03;13.10;;;9.57;;
35380;SDS011;21486;51.916;8.378;2023-01-28T09:28:30;12.63;;;9.00;;
35380;SDS011;21486;51.916;8.378;2023-01-28T09:31:05;13.45;;;9.52;;
35380;SDS011;21486;51.916;8.378;2023-01-28T09:33:32;10.07;;;8.98;;
35380;SDS011;21486;51.916;8.378;2023-01-28T09:35:59;14.38;;;10.45;;
35380;SDS011;21486;51.916;8.378;2023-01-28T09:38:26;19.67;;;13.63;;
35380;SDS011;21486;51.916;8.378;2023-01-28T09:40:52;10.07;;;8.32;;
35380;SDS011;21486;51.916;8.378;2023-01-28T09:43:25;12.25;;;7.93;;
35380;SDS011;21486;51.916;8.378;2023-01-28T09:46:18;9.60;;;7.93;;
35380;SDS011;21486;51.916;8.378;2023-01-28T09:48:48;11.48;;;8.90;;
35380;SDS011;21486;51.916;8.378;2023-01-28T09:53:50;20.60;;;13.07;;
35380;SDS011;21486;51.916;8.378;2023-01-28T09:56:25;16.58;;;11.80;;
35380;SDS011;21486;51.916;8.378;2023-01-28T09:58:56;13.27;;;11.00;;
35380;SDS011;21486;51.916;8.378;2023-01-28T10:04:45;10.23;;;8.63;;
35380;SDS011;21486;51.916;8.378;2023-01-28T10:15:33;14.23;;;9.07;;
35380;SDS011;21486;51.916;8.378;2023-01-28T10:18:12;11.85;;;8.38;;
35380;SDS011;21486;51.916;8.378;2023-01-28T10:20:42;11.83;;;8.67;;
35380;SDS011;21486;51.916;8.378;2023-01-28T10:23:23;11.33;;;8.00;;
35380;SDS011;21486;51.916;8.378;2023-01-28T10:25:56;10.90;;;7.80;;
35380;SDS011;21486;51.916;8.378;2023-01-28T10:28:27;11.77;;;8.68;;
35380;SDS011;21486;51.916;8.378;2023-01-28T10:30:54;14.48;;;9.07;;
35380;SDS011;21486;51.916;8.378;2023-01-28T10:33:35;15.07;;;8.80;;
35380;SDS011;21486;51.916;8.378;2023-01-28T10:36:01;12.80;;;7.68;;
35380;SDS011;21486;51.916;8.378;2023-01-28T10:38:28;12.70;;;7.97;;
35380;SDS011;21486;51.916;8.378;2023-01-28T10:40:57;11.88;;;7.93;;
35380;SDS011;21486;51.916;8.378;2023-01-28T10:43:28;16.77;;;8.77;;
35380;SDS011;21486;51.916;8.378;2023-01-28T10:48:44;9.70;;;8.37;;
35380;SDS011;21486;51.916;8.378;2023-01-28T10:51:17;11.80;;;8.90;;
35380;SDS011;21486;51.916;8.378;2023-01-28T10:53:53;10.60;;;8.35;;
35380;SDS011;21486;51.916;8.378;2023-01-28T10:56:23;17.05;;;10.95;;
35380;SDS011;21486;51.916;8.378;2023-01-28T10:59:17;12.63;;;9.55;;
35380;SDS011;21486;51.916;8.378;2023-01-28T11:01:52;12.60;;;8.90;;
35380;SDS011;21486;51.916;8.378;2023-01-28T11:04:27;12.68;;;8.80;;
35380;SDS011;21486;51.916;8.378;2023-01-28T11:09:25;11.50;;;8.40;;
35380;SDS011;21486;51.916;8.378;2023-01-28T11:11:57;11.43;;;8.17;;
35380;SDS011;21486;51.916;8.378;2023-01-28T11:14:24;8.95;;;7.55;;
35380;SDS011;21486;51.916;8.378;2023-01-28T11:16:52;9.32;;;8.02;;
35380;SDS011;21486;51.916;8.378;2023-01-28T11:19:20;12.57;;;7.57;;
35380;SDS011;21486;51.916;8.378;2023-01-28T11:21:52;11.50;;;7.65;;
35380;SDS011;21486;51.916;8.378;2023-01-28T11:24:21;8.70;;;7.75;;
35380;SDS011;21486;51.916;8.378;2023-01-28T11:26:51;12.15;;;8.48;;
35380;SDS011;21486;51.916;8.378;2023-01-28T11:29:40;9.70;;;7.25;;
35380;SDS011;21486;51.916;8.378;2023-01-28T11:32:14;9.77;;;7.28;;
35380;SDS011;21486;51.916;8.378;2023-01-28T11:34:51;9.40;;;7.10;;
35380;SDS011;21486;51.916;8.378;2023-01-28T11:37:22;7.72;;;6.93;;
35380;SDS011;21486;51.916;8.378;2023-01-28T11:40:02;9.73;;;6.70;;
35380;SDS011;21486;51.916;8.378;2023-01-28T11:42:46;9.40;;;7.05;;
35380;SDS011;21486;51.916;8.378;2023-01-28T11:45:18;8.65;;;6.97;;
35380;SDS011;21486;51.916;8.378;2023-01-28T11:50:36;9.50;;;7.00;;
35380;SDS011;21486;51.916;8.378;2023-01-28T11:53:14;9.18;;;6.93;;
35380;SDS011;21486;51.916;8.378;2023-01-28T11:58:40;10.50;;;7.32;;
35380;SDS011;21486;51.916;8.378;2023-01-28T12:01:23;15.50;;;10.73;;
35380;SDS011;21486;51.916;8.378;2023-01-28T12:20:27;10.95;;;6.43;;
35380;SDS011;21486;51.916;8.378;2023-01-28T12:23:10;12.30;;;7.20;;
35380;SDS011;21486;51.916;8.378;2023-01-28T12:26:01;13.98;;;7.25;;
35380;SDS011;21486;51.916;8.378;2023-01-28T12:31:25;9.02;;;6.80;;
35380;SDS011;21486;51.916;8.378;2023-01-28T12:34:28;9.70;;;7.10;;
35380;SDS011;21486;51.916;8.378;2023-01-28T12:40:39;10.38;;;7.57;;
35380;SDS011;21486;51.916;8.378;2023-01-28T12:43:11;9.15;;;7.80;;
35380;SDS011;21486;51.916;8.378;2023-01-28T12:45:50;11.70;;;8.17;;
35380;SDS011;21486;51.916;8.378;2023-01-28T12:48:26;11.52;;;8.35;;
35380;SDS011;21486;51.916;8.378;2023-01-28T12:51:12;14.98;;;10.43;;
35380;SDS011;21486;51.916;8.378;2023-01-28T12:56:24;16.25;;;9.90;;
35380;SDS011;21486;51.916;8.378;2023-01-28T13:06:51;12.50;;;9.23;;
35380;SDS011;21486;51.916;8.378;2023-01-28T13:09:31;11.75;;;9.20;;
35380;SDS011;21486;51.916;8.378;2023-01-28T13:11:59;13.67;;;10.97;;
35380;SDS011;21486;51.916;8.378;2023-01-28T13:14:30;19.47;;;11.20;;
35380;SDS011;21486;51.916;8.378;2023-01-28T13:17:22;12.50;;;9.90;;
35380;SDS011;21486;51.916;8.378;2023-01-28T13:19:56;13.88;;;9.82;;
35380;SDS011;21486;51.916;8.378;2023-01-28T13:24:52;13.40;;;8.90;;
35380;SDS011;21486;51.916;8.378;2023-01-28T13:27:22;10.00;;;8.50;;
35380;SDS011;21486;51.916;8.378;2023-01-28T13:29:59;13.55;;;8.80;;
35380;SDS011;21486;51.916;8.378;2023-01-28T13:32:28;11.38;;;8.13;;
35380;SDS011;21486;51.916;8.378;2023-01-28T13:34:58;8.43;;;7.47;;
35380;SDS011;21486;51.916;8.378;2023-01-28T13:37:33;10.55;;;8.23;;
35380;SDS011;21486;51.916;8.378;2023-01-28T13:42:38;10.77;;;7.70;;
35380;SDS011;21486;51.916;8.378;2023-01-28T13:47:42;12.10;;;7.87;;
35380;SDS011;21486;51.916;8.378;2023-01-28T13:50:22;10.20;;;8.27;;
35380;SDS011;21486;51.916;8.378;2023-01-28T13:55:21;11.57;;;8.05;;
35380;SDS011;21486;51.916;8.378;2023-01-28T13:58:07;9.50;;;7.53;;
35380;SDS011;21486;51.916;8.378;2023-01-28T14:11:51;11.47;;;7.93;;
35380;SDS011;21486;51.916;8.378;2023-01-28T14:17:45;8.50;;;7.60;;
35380;SDS011;21486;51.916;8.378;2023-01-28T14:20:22;11.87;;;8.47;;
35380;SDS011;21486;51.916;8.378;2023-01-28T14:22:55;13.43;;;9.48;;
35380;SDS011;21486;51.916;8.378;2023-01-28T14:28:15;11.82;;;9.30;;
35380;SDS011;21486;51.916;8.378;2023-01-28T14:31:04;14.80;;;9.90;;
35380;SDS011;21486;51.916;8.378;2023-01-28T14:33:36;14.75;;;9.68;;
35380;SDS011;21486;51.916;8.378;2023-01-28T14:36:03;12.90;;;9.32;;
35380;SDS011;21486;51.916;8.378;2023-01-28T14:38:29;16.15;;;10.55;;
35380;SDS011;21486;51.916;8.378;2023-01-28T14:41:00;13.02;;;8.90;;
35380;SDS011;21486;51.916;8.378;2023-01-28T14:43:26;12.27;;;9.18;;
35380;SDS011;21486;51.916;8.378;2023-01-28T14:51:27;12.98;;;10.48;;
35380;SDS011;21486;51.916;8.378;2023-01-28T14:54:57;15.07;;;10.07;;
35380;SDS011;21486;51.916;8.378;2023-01-28T14:57:44;14.98;;;10.25;;
35380;SDS011;21486;51.916;8.378;2023-01-28T15:00:24;13.50;;;10.25;;
35380;SDS011;21486;51.916;8.378;2023-01-28T15:02:52;14.20;;;11.32;;
35380;SDS011;21486;51.916;8.378;2023-01-28T15:05:25;15.52;;;10.80;;
35380;SDS011;21486;51.916;8.378;2023-01-28T15:07:54;16.63;;;10.77;;
35380;SDS011;21486;51.916;8.378;2023-01-28T15:10:23;17.75;;;11.48;;
35380;SDS011;21486;51.916;8.378;2023-01-28T15:13:07;20.10;;;12.70;;
35380;SDS011;21486;51.916;8.378;2023-01-28T15:15:39;17.42;;;12.93;;
35380;SDS011;21486;51.916;8.378;2023-01-28T15:18:13;20.23;;;13.45;;
35380;SDS011;21486;51.916;8.378;2023-01-28T15:20:46;18.40;;;14.27;;
35380;SDS011;21486;51.916;8.378;2023-01-28T15:23:15;18.25;;;14.40;;
35380;SDS011;21486;51.916;8.378;2023-01-28T15:25:47;17.67;;;13.80;;
35380;SDS011;21486;51.916;8.378;2023-01-28T15:28:46;19.25;;;13.90;;
35380;SDS011;21486;51.916;8.378;2023-01-28T15:31:22;16.80;;;13.75;;
35380;SDS011;21486;51.916;8.378;2023-01-28T15:36:27;22.95;;;16.15;;
35380;SDS011;21486;51.916;8.378;2023-01-28T15:39:26;22.10;;;16.13;;
35380;SDS011;21486;51.916;8.378;2023-01-28T15:41:56;22.33;;;15.75;;
35380;SDS011;21486;51.916;8.378;2023-01-28T15:46:57;19.42;;;15.10;;
35380;SDS011;21486;51.916;8.378;2023-01-28T15:49:25;23.05;;;15.48;;
35380;SDS011;21486;51.916;8.378;2023-01-28T15:51:55;20.05;;;16.55;;
35380;SDS011;21486;51.916;8.378;2023-01-28T15:54:21;23.98;;;17.17;;
35380;SDS011;21486;51.916;8.378;2023-01-28T15:56:47;21.47;;;16.80;;
35380;SDS011;21486;51.916;8.378;2023-01-28T15:59:26;23.33;;;17.48;;
35380;SDS011;21486;51.916;8.378;2023-01-28T16:04:54;27.63;;;18.67;;
35380;SDS011;21486;51.916;8.378;2023-01-28T16:07:29;24.40;;;18.30;;
35380;SDS011;21486;51.916;8.378;2023-01-28T16:09:57;25.52;;;19.30;;
35380;SDS011;21486;51.916;8.378;2023-01-28T16:12:26;26.07;;;19.63;;
35380;SDS011;21486;51.916;8.378;2023-01-28T16:14:59;26.98;;;18.98;;
35380;SDS011;21486;51.916;8.378;2023-01-28T16:17:30;30.92;;;19.25;;
35380;SDS011;21486;51.916;8.378;2023-01-28T16:20:06;28.65;;;19.98;;
35380;SDS011;21486;51.916;8.378;2023-01-28T16:22:34;29.30;;;20.48;;
35380;SDS011;21486;51.916;8.378;2023-01-28T16:25:02;28.80;;;20.10;;
35380;SDS011;21486;51.916;8.378;2023-01-28T16:27:48;36.03;;;21.55;;
35380;SDS011;21486;51.916;8.378;2023-01-28T16:30:13;28.17;;;19.60;;
35380;SDS011;21486;51.916;8.378;2023-01-28T16:32:40;30.08;;;19.88;;
35380;SDS011;21486;51.916;8.378;2023-01-28T16:35:27;27.50;;;20.10;;
35380;SDS011;21486;51.916;8.378;2023-01-28T16:37:53;28.08;;;20.52;;
35380;SDS011;21486;51.916;8.378;2023-01-28T16:40:21;28.50;;;20.15;;
35380;SDS011;21486;51.916;8.378;2023-01-28T16:42:48;28.50;;;19.60;;
35380;SDS011;21486;51.916;8.378;2023-01-28T16:45:18;28.02;;;19.65;;
35380;SDS011;21486;51.916;8.378;2023-01-28T16:47:48;25.95;;;19.50;;
35380;SDS011;21486;51.916;8.378;2023-01-28T16:50:21;30.88;;;22.33;;
35380;SDS011;21486;51.916;8.378;2023-01-28T16:52:50;40.60;;;25.30;;
35380;SDS011;21486;51.916;8.378;2023-01-28T16:55:19;34.88;;;21.27;;
35380;SDS011;21486;51.916;8.378;2023-01-28T16:58:00;32.13;;;20.83;;
35380;SDS011;21486;51.916;8.378;2023-01-28T17:00:26;32.95;;;21.40;;
35380;SDS011;21486;51.916;8.378;2023-01-28T17:02:54;31.48;;;21.85;;
35380;SDS011;21486;51.916;8.378;2023-01-28T17:05:20;33.60;;;21.80;;
35380;SDS011;21486;51.916;8.378;2023-01-28T17:07:47;34.00;;;22.17;;
35380;SDS011;21486;51.916;8.378;2023-01-28T17:10:14;36.73;;;23.27;;
35380;SDS011;21486;51.916;8.378;2023-01-28T17:12:41;36.08;;;23.45;;
35380;SDS011;21486;51.916;8.378;2023-01-28T17:15:07;41.78;;;23.90;;
35380;SDS011;21486;51.916;8.378;2023-01-28T17:17:36;37.50;;;23.60;;
35380;SDS011;21486;51.916;8.378;2023-01-28T17:20:05;44.75;;;25.88;;
35380;SDS011;21486;51.916;8.378;2023-01-28T17:22:31;41.88;;;25.27;;
35380;SDS011;21486;51.916;8.378;2023-01-28T17:24:56;42.47;;;26.15;;
35380;SDS011;21486;51.916;8.378;2023-01-28T17:27:31;45.60;;;26.02;;
35380;SDS011;21486;51.916;8.378;2023-01-28T17:29:57;45.33;;;27.57;;
35380;SDS011;21486;51.916;8.378;2023-01-28T17:32:23;44.20;;;27.40;;
35380;SDS011;21486;51.916;8.378;2023-01-28T17:34:56;48.87;;;27.63;;
35380;SDS011;21486;51.916;8.378;2023-01-28T17:37:22;45.00;;;26.38;;
35380;SDS011;21486;51.916;8.378;2023-01-28T17:39:50;45.08;;;27.55;;
35380;SDS011;21486;51.916;8.378;2023-01-28T17:42:16;43.65;;;27.60;;
35380;SDS011;21486;51.916;8.378;2023-01-28T17:44:42;46.72;;;27.92;;
35380;SDS011;21486;51.916;8.378;2023-01-28T17:47:07;48.05;;;28.58;;
35380;SDS011;21486;51.916;8.378;2023-01-28T17:49:33;57.90;;;35.03;;
35380;SDS011;21486;51.916;8.378;2023-01-28T17:51:59;52.27;;;30.93;;
35380;SDS011;21486;51.916;8.378;2023-01-28T17:54:25;51.57;;;30.63;;
35380;SDS011;21486;51.916;8.378;2023-01-28T17:56:50;50.05;;;28.60;;
35380;SDS011;21486;51.916;8.378;2023-01-28T17:59:16;45.22;;;27.55;;
35380;SDS011;21486;51.916;8.378;2023-01-28T18:01:42;45.90;;;27.00;;
35380;SDS011;21486;51.916;8.378;2023-01-28T18:04:09;44.80;;;28.90;;
35380;SDS011;21486;51.916;8.378;2023-01-28T18:06:46;42.70;;;27.85;;
35380;SDS011;21486;51.916;8.378;2023-01-28T18:09:13;42.25;;;26.52;;
35380;SDS011;21486;51.916;8.378;2023-01-28T18:11:39;40.37;;;26.00;;
35380;SDS011;21486;51.916;8.378;2023-01-28T18:14:12;55.47;;;30.42;;
35380;SDS011;21486;51.916;8.378;2023-01-28T18:16:38;57.15;;;33.70;;
35380;SDS011;21486;51.916;8.378;2023-01-28T18:19:04;48.20;;;30.35;;
35380;SDS011;21486;51.916;8.378;2023-01-28T18:21:31;45.13;;;27.40;;
35380;SDS011;21486;51.916;8.378;2023-01-28T18:24:12;44.88;;;27.02;;
35380;SDS011;21486;51.916;8.378;2023-01-28T18:26:53;47.42;;;28.67;;